Time;durP1;ratioP1;P1;durP2;ratioP2;P2;SDS_P1;SDS_P2;PMS_P1;PMS_P2;Temp;Humidity;BMP_temperature;BMP_pressure;BME280_temperature;BME280_humidity;BME280_pressure;Samples;Min_cycle;Max_cycle;Signal;HPM_P1;HPM_P2
2023/09/01 00:04:20;;;;;;;4.07;1.63;;;;;;;;;;10023211;28;20132;-75
2023/09/01 00:09:12;;;;;;;3.03;1.90;;;;;;;;;;10022864;28;20041;-75
2023/09/01 00:14:05;;;;;;;3.63;1.85;;;;;;;;;;10021255;28;20080;-75
2023/09/01 00:18:56;;;;;;;4.88;2.28;;;;;;;;;;10030611;28;20038;-75
2023/09/01 00:23:49;;;;;;;3.15;1.98;;;;;;;;;;10034380;28;20045;-75
2023/09/01 00:28:40;;;;;;;3.03;1.40;;;;;;;;;;10036320;28;20069;-75
2023/09/01 00:33:33;;;;;;;9.57;3.08;;;;;;;;;;10020113;28;20045;-73
2023/09/01 00:38:26;;;;;;;2.38;1.65;;;;;;;;;;10057690;28;20037;-74
2023/09/01 00:43:20;;;;;;;3.83;1.77;;;;;;;;;;10063007;28;20042;-72
2023/09/01 00:48:15;;;;;;;4.75;1.92;;;;;;;;;;10062466;28;20049;-72
2023/09/01 00:53:08;;;;;;;2.83;1.73;;;;;;;;;;10037175;28;20076;-73
2023/09/01 00:58:01;;;;;;;4.85;1.60;;;;;;;;;;10056766;28;20049;-74
2023/09/01 01:02:53;;;;;;;3.33;1.70;;;;;;;;;;10029935;28;20054;-73
2023/09/01 01:07:57;;;;;;;3.55;1.70;;;;;;;;;;10012953;28;20045;-73
2023/09/01 01:12:54;;;;;;;5.47;2.45;;;;;;;;;;10013159;28;20511;-73
2023/09/01 01:17:46;;;;;;;2.08;1.85;;;;;;;;;;10029624;28;20049;-72
2023/09/01 01:22:42;;;;;;;4.55;1.70;;;;;;;;;;10012580;28;20046;-73
2023/09/01 01:27:34;;;;;;;4.00;1.95;;;;;;;;;;10028363;28;20104;-73
2023/09/01 01:32:28;;;;;;;3.53;1.65;;;;;;;;;;10026300;28;20050;-73
2023/09/01 01:37:30;;;;;;;3.38;1.77;;;;;;;;;;10012095;28;20045;-74
2023/09/01 01:42:22;;;;;;;5.18;1.75;;;;;;;;;;10007060;28;20174;-74
2023/09/01 01:47:15;;;;;;;4.82;1.63;;;;;;;;;;10023732;28;20053;-75
2023/09/01 01:52:07;;;;;;;3.25;1.80;;;;;;;;;;10025395;28;20378;-74
2023/09/01 01:56:59;;;;;;;5.47;1.90;;;;;;;;;;10008619;28;20041;-75
2023/09/01 02:01:51;;;;;;;4.68;2.50;;;;;;;;;;10027139;28;20049;-75
2023/09/01 02:06:43;;;;;;;6.45;3.75;;;;;;;;;;10009701;28;20054;-75
2023/09/01 02:11:36;;;;;;;4.78;3.83;;;;;;;;;;10027778;28;20057;-75
2023/09/01 02:16:28;;;;;;;4.53;3.63;;;;;;;;;;10028488;28;20409;-76
2023/09/01 02:21:20;;;;;;;3.42;3.10;;;;;;;;;;10026816;28;20100;-75
2023/09/01 02:26:20;;;;;;;4.75;4.22;;;;;;;;;;10028251;28;20057;-75
2023/09/01 02:31:12;;;;;;;6.20;3.70;;;;;;;;;;10027621;28;20038;-76
2023/09/01 02:36:32;;;;;;;3.63;2.92;;;;;;;;;;10027921;28;20398;-74
2023/09/01 02:41:24;;;;;;;;;;;;;;;;;;10028075;28;20472;-75
2023/09/01 02:46:16;;;;;;;5.55;3.40;;;;;;;;;;10027120;28;20016;-75
2023/09/01 02:51:08;;;;;;;7.97;3.08;;;;;;;;;;10009157;28;20049;-74
2023/09/01 02:56:01;;;;;;;4.15;2.38;;;;;;;;;;10026980;28;20488;-75
2023/09/01 03:00:53;;;;;;;5.03;3.35;;;;;;;;;;10026033;28;20060;-76
2023/09/01 03:05:46;;;;;;;11.70;4.32;;;;;;;;;;10026476;28;20444;-75
2023/09/01 03:10:38;;;;;;;11.45;3.70;;;;;;;;;;10008384;28;20053;-75
2023/09/01 03:15:31;;;;;;;8.10;3.90;;;;;;;;;;10007860;28;20393;-72
2023/09/01 03:20:23;;;;;;;7.47;3.97;;;;;;;;;;10025149;28;20050;-74
2023/09/01 03:25:17;;;;;;;5.25;3.10;;;;;;;;;;10025638;28;20057;-74
2023/09/01 03:30:10;;;;;;;8.77;4.85;;;;;;;;;;10007540;28;20084;-74
2023/09/01 03:35:05;;;;;;;8.88;4.20;;;;;;;;;;10007030;28;20101;-75
2023/09/01 03:39:57;;;;;;;12.30;6.13;;;;;;;;;;10007747;28;20497;-75
2023/09/01 03:44:49;;;;;;;9.15;5.10;;;;;;;;;;10007379;28;20092;-74
2023/09/01 03:49:41;;;;;;;10.68;5.25;;;;;;;;;;10024361;28;20042;-75
2023/09/01 03:54:33;;;;;;;6.30;2.80;;;;;;;;;;10007918;28;20357;-75
2023/09/01 03:59:25;;;;;;;6.53;4.00;;;;;;;;;;10024809;28;20054;-75
2023/09/01 04:04:18;;;;;;;6.10;3.55;;;;;;;;;;10024826;28;20412;-75
2023/09/01 04:09:11;;;;;;;10.50;3.63;;;;;;;;;;10024036;28;20113;-73
2023/09/01 04:14:04;;;;;;;4.88;2.63;;;;;;;;;;10024111;28;20081;-75
2023/09/01 04:18:56;;;;;;;5.82;2.75;;;;;;;;;;10023869;28;20045;-75
2023/09/01 04:23:49;;;;;;;5.15;2.38;;;;;;;;;;10005542;28;20045;-75
2023/09/01 04:28:41;;;;;;;4.43;2.45;;;;;;;;;;10006183;28;20077;-74
2023/09/01 04:33:33;;;;;;;3.50;2.33;;;;;;;;;;10005304;28;20556;-75
2023/09/01 04:38:25;;;;;;;3.20;2.33;;;;;;;;;;10005964;28;20042;-74
2023/09/01 04:43:17;;;;;;;2.67;2.08;;;;;;;;;;10005950;28;20128;-74
2023/09/01 04:48:10;;;;;;;6.40;2.00;;;;;;;;;;10005692;28;20050;-75
2023/09/01 04:53:03;;;;;;;3.67;2.20;;;;;;;;;;10006418;28;20049;-72
2023/09/01 04:57:55;;;;;;;5.22;2.47;;;;;;;;;;10005885;28;20042;-75
2023/09/01 05:02:47;;;;;;;4.13;1.80;;;;;;;;;;10005388;28;20050;-71
2023/09/01 05:07:39;;;;;;;4.95;2.05;;;;;;;;;;10023428;28;20049;-74
2023/09/01 05:12:32;;;;;;;4.35;2.45;;;;;;;;;;10005486;28;20053;-74
2023/09/01 05:17:24;;;;;;;2.55;2.20;;;;;;;;;;10005140;28;20050;-75
2023/09/01 05:22:16;;;;;;;3.28;1.85;;;;;;;;;;10005542;28;20364;-75
2023/09/01 05:27:08;;;;;;;2.63;2.00;;;;;;;;;;10022818;28;20046;-75
2023/09/01 05:32:00;;;;;;;4.35;2.08;;;;;;;;;;10022324;28;20054;-75
2023/09/01 05:36:51;;;;;;;3.50;1.80;;;;;;;;;;10026058;28;20045;-74
2023/09/01 05:41:43;;;;;;;6.05;1.98;;;;;;;;;;10026925;28;20049;-75
2023/09/01 05:46:35;;;;;;;4.30;2.28;;;;;;;;;;10018179;28;20042;-75
2023/09/01 05:51:28;;;;;;;6.00;2.45;;;;;;;;;;9988740;28;20043;-74
2023/09/01 05:56:19;;;;;;;3.80;3.05;;;;;;;;;;10025072;28;20069;-73
2023/09/01 06:01:11;;;;;;;3.70;2.30;;;;;;;;;;10028692;28;20136;-72
2023/09/01 06:06:03;;;;;;;4.18;2.33;;;;;;;;;;10028937;28;20050;-72
2023/09/01 06:11:08;;;;;;;6.63;3.05;;;;;;;;;;10028382;28;20053;-72
2023/09/01 06:16:03;;;;;;;6.47;2.75;;;;;;;;;;10028321;28;20267;-74
2023/09/01 06:20:55;;;;;;;4.65;2.20;;;;;;;;;;10028026;28;20046;-72
2023/09/01 06:25:47;;;;;;;3.17;2.05;;;;;;;;;;10027835;28;20096;-72
2023/09/01 06:30:41;;;;;;;6.35;2.70;;;;;;;;;;10027472;28;20050;-73
2023/09/01 06:35:33;;;;;;;4.10;2.55;;;;;;;;;;10027683;28;20050;-73
2023/09/01 06:40:25;;;;;;;3.30;2.28;;;;;;;;;;10026176;28;20365;-72
2023/09/01 06:45:16;;;;;;;5.07;2.63;;;;;;;;;;10027531;28;20129;-73
2023/09/01 06:50:09;;;;;;;4.53;2.55;;;;;;;;;;10026023;28;20531;-73
2023/09/01 06:55:01;;;;;;;4.75;3.30;;;;;;;;;;10027043;28;20153;-73
2023/09/01 06:59:53;;;;;;;3.95;1.98;;;;;;;;;;10026307;28;20046;-73
2023/09/01 07:04:45;;;;;;;5.95;2.67;;;;;;;;;;10026378;28;20074;-72
2023/09/01 07:09:37;;;;;;;4.18;2.50;;;;;;;;;;10025516;28;20042;-73
2023/09/01 07:14:29;;;;;;;5.20;2.20;;;;;;;;;;10026304;28;20714;-73
2023/09/01 07:19:21;;;;;;;3.28;2.33;;;;;;;;;;10025908;28;20052;-73
2023/09/01 07:24:12;;;;;;;3.95;2.28;;;;;;;;;;10026027;28;20084;-73
2023/09/01 07:29:04;;;;;;;4.18;2.75;;;;;;;;;;10024968;28;20420;-73
2023/09/01 07:33:57;;;;;;;5.30;2.63;;;;;;;;;;10024907;28;20132;-73
2023/09/01 07:38:49;;;;;;;4.88;3.05;;;;;;;;;;10024879;28;20065;-73
2023/09/01 07:43:41;;;;;;;5.45;2.60;;;;;;;;;;10024273;28;20109;-73
2023/09/01 07:48:33;;;;;;;7.95;3.25;;;;;;;;;;10024896;28;20340;-73
2023/09/01 07:53:25;;;;;;;8.15;3.50;;;;;;;;;;10024421;28;20104;-71
2023/09/01 07:58:17;;;;;;;7.88;3.42;;;;;;;;;;10024501;28;20050;-73
2023/09/01 08:03:12;;;;;;;3.67;2.67;;;;;;;;;;10023513;28;20053;-71
2023/09/01 08:08:05;;;;;;;3.50;2.83;;;;;;;;;;10024545;28;20413;-74
2023/09/01 08:12:56;;;;;;;3.97;2.83;;;;;;;;;;10024192;28;20077;-72
2023/09/01 08:17:50;;;;;;;6.13;2.90;;;;;;;;;;10024605;28;20045;-72
2023/09/01 08:22:42;;;;;;;3.83;2.55;;;;;;;;;;10023371;28;20476;-73
2023/09/01 08:27:33;;;;;;;5.95;2.53;;;;;;;;;;10024101;28;20050;-75
2023/09/01 08:32:25;;;;;;;5.25;3.45;;;;;;;;;;10023526;28;20052;-73
2023/09/01 08:37:19;;;;;;;6.00;2.60;;;;;;;;;;10022458;28;20046;-73
2023/09/01 08:42:12;;;;;;;4.00;2.42;;;;;;;;;;10023691;28;20050;-73
2023/09/01 08:47:04;;;;;;;5.38;3.03;;;;;;;;;;10023291;28;20053;-74
2023/09/01 08:51:57;;;;;;;4.07;2.50;;;;;;;;;;10021983;28;20109;-72
2023/09/01 08:56:49;;;;;;;5.75;2.83;;;;;;;;;;10023578;28;20118;-73
2023/09/01 09:01:41;;;;;;;4.13;2.78;;;;;;;;;;10022541;28;20130;-74
2023/09/01 09:06:35;;;;;;;4.13;2.58;;;;;;;;;;10022898;28;20053;-74
2023/09/01 09:11:27;;;;;;;4.18;2.88;;;;;;;;;;10026016;28;20141;-73
2023/09/01 09:16:20;;;;;;;7.43;3.08;;;;;;;;;;10030726;28;20057;-74
2023/09/01 09:21:32;;;;;;;3.22;2.50;;;;;;;;;;10029892;28;20129;-73
2023/09/01 09:26:28;;;;;;;6.65;3.90;;;;;;;;;;10030271;28;20730;-72
2023/09/01 09:31:36;;;;;;;5.43;2.90;;;;;;;;;;10029829;28;20049;-73
2023/09/01 09:36:36;;;;;;;6.68;3.30;;;;;;;;;;10029721;28;20084;-74
2023/09/01 09:41:45;;;;;;;4.63;3.40;;;;;;;;;;10027457;28;20046;-73
2023/09/01 09:46:41;;;;;;;6.78;4.32;;;;;;;;;;10029090;28;20056;-74
2023/09/01 09:51:33;;;;;;;4.60;3.10;;;;;;;;;;10024298;28;20054;-73
2023/09/01 09:56:35;;;;;;;6.03;2.80;;;;;;;;;;10029208;28;20042;-73
2023/09/01 10:01:34;;;;;;;6.78;3.17;;;;;;;;;;10024747;28;20156;-74
2023/09/01 10:06:27;;;;;;;6.07;3.17;;;;;;;;;;10067894;28;20065;-75
2023/09/01 10:11:19;;;;;;;3.75;2.92;;;;;;;;;;10067464;28;20383;-74
2023/09/01 10:16:13;;;;;;;6.13;3.40;;;;;;;;;;10067810;28;20475;-76
2023/09/01 10:21:05;;;;;;;5.18;2.95;;;;;;;;;;10032881;28;20056;-75
2023/09/01 10:26:29;;;;;;;5.63;2.90;;;;;;;;;;10014290;28;20129;-72
2023/09/01 10:31:23;;;;;;;6.45;2.85;;;;;;;;;;10007577;28;20048;-74
2023/09/01 10:36:17;;;;;;;6.68;3.10;;;;;;;;;;10020111;28;20057;-74
2023/09/01 10:41:09;;;;;;;4.85;3.03;;;;;;;;;;10030761;28;20116;-75
2023/09/01 10:46:14;;;;;;;3.40;2.53;;;;;;;;;;10024991;28;20354;-74
2023/09/01 10:51:17;;;;;;;6.88;3.28;;;;;;;;;;10030636;28;20328;-75
2023/09/01 10:56:11;;;;;;;5.88;3.45;;;;;;;;;;10012028;28;20038;-73
2023/09/01 11:01:28;;;;;;;8.10;2.67;;;;;;;;;;10007333;28;20046;-74
2023/09/01 11:06:21;;;;;;;5.00;3.90;;;;;;;;;;10013724;28;20057;-74
2023/09/01 11:11:13;;;;;;;6.28;3.83;;;;;;;;;;10015071;28;20050;-75
2023/09/01 11:16:09;;;;;;;5.22;3.35;;;;;;;;;;10044354;28;20081;-75
2023/09/01 11:21:01;;;;;;;7.80;3.05;;;;;;;;;;10064514;28;20053;-74
2023/09/01 11:26:05;;;;;;;7.10;3.70;;;;;;;;;;10039070;28;20053;-74
2023/09/01 11:31:01;;;;;;;7.03;3.38;;;;;;;;;;10013062;28;20052;-74
2023/09/01 11:36:07;;;;;;;6.53;3.58;;;;;;;;;;10021527;28;20453;-74
2023/09/01 11:41:01;;;;;;;4.07;2.42;;;;;;;;;;10025841;28;20054;-73
2023/09/01 11:45:53;;;;;;;8.48;3.40;;;;;;;;;;10038980;28;20064;-73
2023/09/01 11:50:45;;;;;;;5.15;4.05;;;;;;;;;;10063907;28;20495;-74
2023/09/01 11:55:38;;;;;;;5.13;3.25;;;;;;;;;;10037146;28;20068;-73
2023/09/01 12:00:32;;;;;;;9.55;3.67;;;;;;;;;;10039470;28;20045;-72
2023/09/01 12:05:32;;;;;;;8.85;3.78;;;;;;;;;;10052972;28;20137;-74
2023/09/01 12:10:24;;;;;;;6.03;3.88;;;;;;;;;;9984504;28;20767;-72
2023/09/01 12:15:16;;;;;;;6.95;3.65;;;;;;;;;;10034401;28;20046;-72
2023/09/01 12:20:08;;;;;;;8.05;4.95;;;;;;;;;;10015818;28;20034;-75
2023/09/01 12:25:00;;;;;;;9.02;3.88;;;;;;;;;;10005108;28;20057;-72
2023/09/01 12:29:52;;;;;;;9.88;4.93;;;;;;;;;;10009205;28;20054;-74
2023/09/01 12:34:45;;;;;;;5.75;3.85;;;;;;;;;;10014967;28;20064;-75
2023/09/01 12:39:39;;;;;;;5.85;3.13;;;;;;;;;;10015171;28;20133;-74
2023/09/01 12:44:31;;;;;;;7.35;4.32;;;;;;;;;;10010004;28;20038;-74
2023/09/01 12:49:23;;;;;;;7.43;3.35;;;;;;;;;;10022106;28;20050;-74
2023/09/01 12:54:15;;;;;;;4.85;3.38;;;;;;;;;;10025002;28;20054;-74
2023/09/01 12:59:07;;;;;;;7.25;3.17;;;;;;;;;;10016650;28;20129;-74
2023/09/01 13:04:00;;;;;;;5.90;2.78;;;;;;;;;;10027669;28;20058;-74
2023/09/01 13:08:52;;;;;;;8.07;2.83;;;;;;;;;;10013884;28;20089;-74
2023/09/01 13:13:44;;;;;;;8.65;3.83;;;;;;;;;;10023039;28;20058;-75
2023/09/01 13:18:36;;;;;;;8.40;3.72;;;;;;;;;;10026968;28;20049;-75
2023/09/01 13:23:28;;;;;;;13.10;4.30;;;;;;;;;;10027432;28;20275;-72
2023/09/01 13:28:22;;;;;;;8.15;4.13;;;;;;;;;;10007613;28;20053;-74
2023/09/01 13:33:15;;;;;;;4.68;2.80;;;;;;;;;;10009921;28;20046;-73
2023/09/01 13:38:08;;;;;;;7.65;3.53;;;;;;;;;;10013159;28;20393;-73
2023/09/01 13:43:00;;;;;;;8.68;3.83;;;;;;;;;;9998243;28;20053;-73
2023/09/01 13:47:52;;;;;;;10.13;4.85;;;;;;;;;;9987325;28;20046;-72
2023/09/01 13:52:44;;;;;;;5.20;3.42;;;;;;;;;;9998032;28;20420;-74
2023/09/01 13:57:37;;;;;;;6.25;3.15;;;;;;;;;;10014141;28;20114;-73
2023/09/01 14:02:31;;;;;;;4.47;2.75;;;;;;;;;;10018241;28;20147;-74
2023/09/01 14:07:23;;;;;;;6.72;3.60;;;;;;;;;;10020193;28;20169;-75
2023/09/01 14:12:15;;;;;;;8.10;3.58;;;;;;;;;;9997191;28;20050;-73
2023/09/01 14:17:07;;;;;;;6.43;3.05;;;;;;;;;;10002955;28;20098;-73
2023/09/01 14:21:59;;;;;;;7.35;3.20;;;;;;;;;;10006032;28;20449;-73
2023/09/01 14:26:53;;;;;;;6.32;2.70;;;;;;;;;;10027104;28;20532;-75
2023/09/01 14:31:45;;;;;;;8.70;2.88;;;;;;;;;;10019363;28;20948;-70
2023/09/01 14:36:37;;;;;;;5.65;3.03;;;;;;;;;;10021504;28;20885;-71
2023/09/01 14:41:29;;;;;;;12.73;2.83;;;;;;;;;;10023386;28;20356;-71
2023/09/01 14:46:21;;;;;;;7.07;2.95;;;;;;;;;;10024313;28;20479;-72
2023/09/01 14:51:14;;;;;;;5.60;2.92;;;;;;;;;;10023040;28;20108;-73
2023/09/01 14:56:07;;;;;;;9.43;3.25;;;;;;;;;;10023743;28;20070;-73
2023/09/01 15:01:00;;;;;;;4.53;2.60;;;;;;;;;;10018644;28;20144;-73
2023/09/01 15:05:52;;;;;;;4.72;2.63;;;;;;;;;;10019555;28;20484;-73
2023/09/01 15:10:44;;;;;;;9.98;2.88;;;;;;;;;;10043346;28;20053;-74
2023/09/01 15:15:36;;;;;;;5.90;2.60;;;;;;;;;;10014445;28;20101;-74
2023/09/01 15:20:28;;;;;;;5.55;2.65;;;;;;;;;;10008684;28;20042;-73
2023/09/01 15:25:20;;;;;;;4.18;2.75;;;;;;;;;;10016089;28;20441;-71
2023/09/01 15:30:12;;;;;;;5.50;2.60;;;;;;;;;;10012715;28;20034;-73
2023/09/01 15:35:04;;;;;;;5.70;2.75;;;;;;;;;;10018716;28;20061;-73
2023/09/01 15:40:12;;;;;;;4.25;2.65;;;;;;;;;;9996279;28;20046;-75
2023/09/01 15:45:04;;;;;;;3.53;2.70;;;;;;;;;;10022268;28;20056;-73
2023/09/01 15:49:56;;;;;;;6.03;2.97;;;;;;;;;;10005673;28;20145;-73
2023/09/01 15:54:48;;;;;;;6.68;2.85;;;;;;;;;;10008820;28;20053;-74
2023/09/01 15:59:42;;;;;;;8.32;2.60;;;;;;;;;;9999205;28;20136;-73
2023/09/01 16:04:35;;;;;;;6.07;3.03;;;;;;;;;;10017108;28;20054;-75
2023/09/01 16:09:27;;;;;;;5.78;2.83;;;;;;;;;;9984406;28;20137;-76
2023/09/01 16:14:18;;;;;;;11.18;4.60;;;;;;;;;;9982270;28;20058;-75
2023/09/01 16:19:11;;;;;;;7.53;3.60;;;;;;;;;;9981057;28;20133;-76
2023/09/01 16:24:03;;;;;;;7.32;3.53;;;;;;;;;;9982717;28;20070;-74
2023/09/01 16:28:56;;;;;;;8.07;3.25;;;;;;;;;;9982162;28;20051;-74
2023/09/01 16:33:48;;;;;;;4.70;2.25;;;;;;;;;;9980057;28;20057;-76
2023/09/01 16:38:43;;;;;;;7.43;2.85;;;;;;;;;;9994020;28;20045;-74
2023/09/01 16:43:34;;;;;;;4.32;3.30;;;;;;;;;;9992348;28;20610;-75
2023/09/01 16:48:27;;;;;;;3.88;2.47;;;;;;;;;;10010185;28;20047;-75
2023/09/01 16:53:19;;;;;;;7.32;2.45;;;;;;;;;;9980401;28;20050;-75
2023/09/01 16:58:13;;;;;;;4.68;2.90;;;;;;;;;;9992653;28;20381;-74
2023/09/01 17:03:05;;;;;;;8.48;3.67;;;;;;;;;;9980739;28;20062;-74
2023/09/01 17:07:57;;;;;;;3.90;2.60;;;;;;;;;;9981774;28;20102;-74
2023/09/01 17:12:49;;;;;;;7.05;2.67;;;;;;;;;;9980332;28;20152;-75
2023/09/01 17:17:41;;;;;;;6.90;3.08;;;;;;;;;;9980836;28;20113;-75
2023/09/01 17:22:34;;;;;;;5.50;3.03;;;;;;;;;;9964203;28;20267;-75
2023/09/01 17:27:28;;;;;;;7.28;3.67;;;;;;;;;;9984113;28;20097;-74
2023/09/01 17:32:19;;;;;;;7.97;3.25;;;;;;;;;;10017523;28;20349;-75
2023/09/01 17:37:11;;;;;;;4.65;3.22;;;;;;;;;;10009906;28;20046;-74
2023/09/01 17:42:03;;;;;;;5.35;2.88;;;;;;;;;;9997317;28;20137;-72
2023/09/01 17:46:55;;;;;;;6.53;4.45;;;;;;;;;;9988544;28;20129;-73
2023/09/01 17:51:47;;;;;;;10.77;3.05;;;;;;;;;;9985908;28;20150;-74
2023/09/01 17:56:39;;;;;;;6.88;3.00;;;;;;;;;;9986419;28;20046;-75
2023/09/01 18:01:31;;;;;;;9.05;2.78;;;;;;;;;;9985505;28;20481;-74
2023/09/01 18:06:23;;;;;;;3.60;2.50;;;;;;;;;;9986869;28;20046;-74
2023/09/01 18:11:14;;;;;;;3.30;2.53;;;;;;;;;;9988182;28;20093;-74
2023/09/01 18:16:10;;;;;;;4.03;3.05;;;;;;;;;;9986242;28;20046;-74
2023/09/01 18:21:03;;;;;;;6.18;2.90;;;;;;;;;;10017346;28;20038;-73
2023/09/01 18:26:06;;;;;;;6.57;3.38;;;;;;;;;;9995287;28;20052;-73
2023/09/01 18:30:58;;;;;;;7.03;3.30;;;;;;;;;;9982877;28;20069;-73
2023/09/01 18:35:55;;;;;;;5.53;2.83;;;;;;;;;;9985375;28;20121;-73
2023/09/01 18:40:47;;;;;;;12.50;3.42;;;;;;;;;;10018990;28;20053;-73
2023/09/01 18:45:40;;;;;;;5.95;3.13;;;;;;;;;;9989332;28;20042;-73
2023/09/01 18:50:32;;;;;;;5.47;2.92;;;;;;;;;;9984942;28;20148;-73
2023/09/01 18:55:24;;;;;;;9.98;3.65;;;;;;;;;;9985770;28;20057;-72
2023/09/01 19:00:27;;;;;;;8.65;3.35;;;;;;;;;;9982853;28;20141;-73
2023/09/01 19:05:26;;;;;;;7.50;3.80;;;;;;;;;;9984538;28;20052;-73
2023/09/01 19:10:20;;;;;;;6.80;3.90;;;;;;;;;;9984057;28;20042;-73
2023/09/01 19:15:13;;;;;;;6.05;3.55;;;;;;;;;;9978290;28;20100;-73
2023/09/01 19:20:32;;;;;;;6.20;3.75;;;;;;;;;;10014210;28;20046;-73
2023/09/01 19:25:24;;;;;;;7.10;3.58;;;;;;;;;;9983405;28;20046;-74
2023/09/01 19:30:17;;;;;;;5.07;3.47;;;;;;;;;;9979771;28;20416;-73
2023/09/01 19:35:11;;;;;;;6.97;3.80;;;;;;;;;;9981649;28;20389;-75
2023/09/01 19:40:08;;;;;;;9.50;4.75;;;;;;;;;;10001665;28;20045;-76
2023/09/01 19:45:00;;;;;;;7.10;3.77;;;;;;;;;;9985438;28;20100;-75
2023/09/01 19:49:52;;;;;;;5.22;3.65;;;;;;;;;;9982129;28;20296;-75
2023/09/01 19:54:44;;;;;;;7.88;4.30;;;;;;;;;;9984570;28;20082;-73
2023/09/01 19:59:36;;;;;;;8.70;4.28;;;;;;;;;;9979925;28;20042;-75
2023/09/01 20:04:28;;;;;;;7.97;4.82;;;;;;;;;;10016475;28;20634;-76
2023/09/01 20:09:21;;;;;;;12.23;4.80;;;;;;;;;;10004765;28;20109;-75
2023/09/01 20:14:15;;;;;;;8.32;4.30;;;;;;;;;;10022271;28;20042;-75
2023/09/01 20:19:18;;;;;;;8.10;4.35;;;;;;;;;;10003456;28;20042;-74
2023/09/01 20:24:09;;;;;;;8.23;5.15;;;;;;;;;;9965210;28;20137;-75
2023/09/01 20:29:01;;;;;;;7.82;4.40;;;;;;;;;;9981915;28;20039;-74
2023/09/01 20:33:53;;;;;;;8.95;4.70;;;;;;;;;;9980058;28;20074;-75
2023/09/01 20:38:45;;;;;;;10.88;5.32;;;;;;;;;;9980439;28;20073;-73
2023/09/01 20:43:37;;;;;;;8.27;4.30;;;;;;;;;;9992559;28;20105;-73
2023/09/01 20:48:28;;;;;;;8.35;4.65;;;;;;;;;;10020857;28;20069;-74
2023/09/01 20:53:20;;;;;;;7.22;4.35;;;;;;;;;;10010389;28;20500;-74
2023/09/01 20:58:12;;;;;;;8.45;4.72;;;;;;;;;;9981058;28;20488;-75
2023/09/01 21:03:05;;;;;;;6.40;4.35;;;;;;;;;;9963447;28;20129;-74
2023/09/01 21:07:57;;;;;;;7.80;3.80;;;;;;;;;;9984853;28;20105;-75
2023/09/01 21:12:49;;;;;;;5.82;4.30;;;;;;;;;;9987198;28;20133;-75
2023/09/01 21:17:41;;;;;;;6.70;4.63;;;;;;;;;;9986740;28;20046;-75
2023/09/01 21:22:33;;;;;;;6.38;3.90;;;;;;;;;;9987533;28;20054;-75
2023/09/01 21:27:25;;;;;;;6.05;3.58;;;;;;;;;;9992464;28;20034;-73
2023/09/01 21:32:20;;;;;;;7.30;4.40;;;;;;;;;;10013371;28;20047;-75
2023/09/01 21:37:12;;;;;;;11.55;4.45;;;;;;;;;;9986626;28;20496;-75
2023/09/01 21:42:04;;;;;;;7.97;4.15;;;;;;;;;;9988728;28;20102;-74
2023/09/01 21:46:56;;;;;;;5.03;4.22;;;;;;;;;;10025088;28;20065;-75
2023/09/01 21:51:48;;;;;;;5.07;3.92;;;;;;;;;;10026871;28;20483;-73
2023/09/01 21:56:40;;;;;;;8.18;4.63;;;;;;;;;;9987601;28;20129;-75
2023/09/01 22:01:32;;;;;;;9.20;3.85;;;;;;;;;;9997896;28;20069;-74
2023/09/01 22:06:24;;;;;;;6.88;4.40;;;;;;;;;;9984551;28;20061;-75
2023/09/01 22:11:17;;;;;;;13.30;5.78;;;;;;;;;;10005929;28;20432;-71
2023/09/01 22:16:09;;;;;;;7.10;4.35;;;;;;;;;;10016176;28;20037;-75
2023/09/01 22:21:01;;;;;;;7.65;4.85;;;;;;;;;;10000900;28;20129;-76
2023/09/01 22:25:53;;;;;;;6.95;4.55;;;;;;;;;;9999175;28;20108;-75
2023/09/01 22:30:45;;;;;;;7.22;4.50;;;;;;;;;;9994370;28;20042;-74
2023/09/01 22:35:37;;;;;;;12.55;4.38;;;;;;;;;;9989861;28;20088;-74
2023/09/01 22:40:29;;;;;;;5.68;4.18;;;;;;;;;;9992544;28;20041;-76
2023/09/01 22:45:21;;;;;;;5.45;3.95;;;;;;;;;;10029243;28;20042;-75
2023/09/01 22:50:13;;;;;;;7.57;4.57;;;;;;;;;;10002548;28;20049;-75
2023/09/01 22:55:05;;;;;;;6.43;4.78;;;;;;;;;;10009525;28;20046;-76
2023/09/01 22:59:57;;;;;;;6.65;4.03;;;;;;;;;;9992641;28;20104;-76
2023/09/01 23:04:49;;;;;;;7.50;4.00;;;;;;;;;;9999155;28;20054;-76
2023/09/01 23:09:41;;;;;;;6.70;4.50;;;;;;;;;;10008011;28;20046;-75
2023/09/01 23:14:33;;;;;;;6.40;4.65;;;;;;;;;;10009086;28;20060;-74
2023/09/01 23:19:25;;;;;;;5.55;4.32;;;;;;;;;;9987675;28;20142;-75
2023/09/01 23:24:19;;;;;;;6.03;4.65;;;;;;;;;;9982981;28;20042;-76
2023/09/01 23:29:13;;;;;;;8.95;4.13;;;;;;;;;;9993178;28;20042;-75
2023/09/01 23:34:05;;;;;;;14.05;4.18;;;;;;;;;;9992946;28;20101;-71
2023/09/01 23:38:57;;;;;;;7.13;4.55;;;;;;;;;;10013904;28;20049;-75
2023/09/01 23:43:49;;;;;;;7.00;4.43;;;;;;;;;;10029077;28;20468;-74
2023/09/01 23:48:41;;;;;;;8.07;4.28;;;;;;;;;;10010384;28;20042;-73
2023/09/01 23:53:33;;;;;;;9.32;4.60;;;;;;;;;;10010068;28;20149;-74
2023/09/01 23:58:25;;;;;;;4.38;3.78;;;;;;;;;;10020706;28;20038;-75
